Time;durP1;ratioP1;P1;durP2;ratioP2;P2;SDS_P1;SDS_P2;PMS_P1;PMS_P2;Temp;Humidity;BMP_temperature;BMP_pressure;BME280_temperature;BME280_humidity;BME280_pressure;Samples;Min_cycle;Max_cycle;Signal;HPM_P1;HPM_P2
2021/04/30 00:01:10;;;;;;;6.97;4.03;;;;;;;15.00;65.17;98935.28;4435599;27;33713;-86
2021/04/30 00:03:58;;;;;;;6.87;3.33;;;;;;;14.87;65.54;98939.06;4444439;27;33906;31
2021/04/30 00:10:19;;;;;;;6.50;3.78;;;;;;;14.95;65.13;98943.31;4700121;28;20166;-91
2021/04/30 00:12:53;;;;;;;4.25;3.37;;;;;;;15.06;64.92;98936.22;4332297;28;33409;-88
2021/04/30 00:18:59;;;;;;;6.90;3.70;;;;;;;15.23;64.10;98944.53;4389336;27;34573;31
2021/04/30 00:22:07;;;;;;;5.22;3.03;;;;;;;14.85;65.33;98929.47;4213918;28;20093;-90
2021/04/30 00:24:40;;;;;;;8.93;3.95;;;;;;;14.98;65.01;98943.69;4378244;27;33972;-96
2021/04/30 00:30:47;;;;;;;7.12;4.03;;;;;;;14.68;66.37;98937.50;4332179;28;33766;-87
2021/04/30 00:34:10;;;;;;;7.25;3.87;;;;;;;14.67;66.47;98944.00;4348844;27;33638;-90
2021/04/30 00:37:10;;;;;;;5.70;2.90;;;;;;;14.63;66.69;98939.03;4318857;27;35330;31
2021/04/30 00:40:03;;;;;;;4.45;3.33;;;;;;;14.53;67.05;98955.03;4428042;27;33040;-94
2021/04/30 00:42:54;;;;;;;4.85;3.50;;;;;;;14.71;66.35;98950.63;4368162;27;33553;-91
2021/04/30 00:45:31;;;;;;;4.70;3.15;;;;;;;14.70;66.46;98960.69;4424852;27;33333;-85
2021/04/30 00:48:05;;;;;;;4.65;3.37;;;;;;;14.55;67.25;98949.37;4337217;33;35049;-96
2021/04/30 00:50:41;;;;;;;7.95;3.37;;;;;;;14.28;68.25;98941.59;4324305;33;32836;-95
2021/04/30 00:54:09;;;;;;;8.50;4.10;;;;;;;14.49;67.71;98948.44;4337301;27;35346;31
2021/04/30 00:56:47;;;;;;;5.40;3.55;;;;;;;14.47;67.64;98943.19;4387658;27;35166;-86
2021/04/30 00:59:42;;;;;;;4.82;2.90;;;;;;;14.81;66.55;98945.44;4437745;27;32079;-93
2021/04/30 01:02:30;;;;;;;7.25;3.60;;;;;;;14.33;68.26;98943.66;4443480;27;32669;-85
2021/04/30 01:05:06;;;;;;;7.60;3.72;;;;;;;14.48;67.75;98942.16;4341245;27;33694;-94
2021/04/30 01:07:49;;;;;;;8.25;3.80;;;;;;;14.01;69.25;98935.72;4317594;33;36652;-96
2021/04/30 01:10:57;;;;;;;6.28;3.33;;;;;;;14.45;67.96;98937.19;4332239;33;33294;-93
2021/04/30 01:13:36;;;;;;;6.30;3.70;;;;;;;14.40;68.27;98937.06;4318449;33;34519;-86
2021/04/30 01:16:08;;;;;;;7.62;2.78;;;;;;;14.61;67.38;98938.44;4333684;27;33718;-87
2021/04/30 01:18:45;;;;;;;6.45;3.25;;;;;;;14.29;68.44;98944.09;4334246;33;33156;-96
2021/04/30 01:21:31;;;;;;;6.15;3.70;;;;;;;14.14;69.25;98951.84;4309957;33;33903;-92
2021/04/30 01:24:14;;;;;;;6.75;3.87;;;;;;;14.15;69.29;98945.34;4308816;33;33618;-86
2021/04/30 01:27:10;;;;;;;9.10;3.62;;;;;;;14.38;68.58;98943.78;4371005;27;33634;-96
2021/04/30 01:30:01;;;;;;;5.05;3.25;;;;;;;14.16;69.20;98948.87;4357386;27;33695;-86
2021/04/30 01:32:33;;;;;;;6.75;3.40;;;;;;;14.20;69.36;98940.03;4404567;27;32725;-89
2021/04/30 01:35:07;;;;;;;4.62;4.12;;;;;;;14.66;67.87;98940.44;4350421;27;33281;-92
2021/04/30 01:37:46;;;;;;;4.50;3.37;;;;;;;14.44;68.24;98935.50;4512760;27;32851;-94
2021/04/30 01:40:30;;;;;;;8.35;3.87;;;;;;;14.82;67.12;98944.38;4358368;27;33677;-92
2021/04/30 01:46:54;;;;;;;8.32;4.90;;;;;;;15.12;66.00;98946.16;4312647;27;20155;-95
2021/04/30 01:50:08;;;;;;;7.60;3.90;;;;;;;14.86;66.92;98936.56;4287752;33;20624;-85
2021/04/30 01:52:40;;;;;;;5.75;3.60;;;;;;;15.11;65.77;98947.25;4286435;33;33770;-84
2021/04/30 01:55:13;;;;;;;13.05;3.65;;;;;;;15.15;65.88;98951.16;4286950;33;34579;-85
2021/04/30 01:57:47;;;;;;;12.63;4.05;;;;;;;15.17;65.65;98949.03;4285695;33;33194;-96
2021/04/30 02:00:26;;;;;;;6.62;3.35;;;;;;;15.13;65.52;98947.81;4276041;33;32732;-85
2021/04/30 02:03:00;;;;;;;5.72;3.45;;;;;;;15.39;64.70;98951.13;4286135;33;34595;-96
2021/04/30 02:05:33;;;;;;;5.20;3.65;;;;;;;14.89;66.37;98941.53;4274974;33;33729;-85
2021/04/30 02:08:08;;;;;;;5.53;3.45;;;;;;;15.21;65.31;98938.47;4301411;33;34701;-95
2021/04/30 02:10:43;;;;;;;4.47;3.22;;;;;;;15.20;65.22;98936.84;4293191;33;34442;-96
2021/04/30 02:13:19;;;;;;;4.78;3.33;;;;;;;14.92;66.04;98939.16;4304663;33;35383;-96
2021/04/30 02:15:53;;;;;;;7.87;3.92;;;;;;;15.34;64.30;98947.25;4304390;33;34734;-96
2021/04/30 02:18:27;;;;;;;9.57;3.53;;;;;;;15.35;64.09;98950.78;4304858;33;33868;-95
2021/04/30 02:20:59;;;;;;;5.80;3.67;;;;;;;15.28;64.05;98940.00;4292136;33;33985;-96
2021/04/30 02:23:32;;;;;;;4.97;3.42;;;;;;;15.19;64.47;98944.16;4306813;33;34476;-86
2021/04/30 02:26:09;;;;;;;6.68;4.10;;;;;;;15.06;65.02;98947.09;4303111;33;34300;-85
2021/04/30 02:28:45;;;;;;;5.60;3.40;;;;;;;15.27;64.14;98954.69;4317975;33;33188;-85
2021/04/30 02:31:18;;;;;;;4.70;3.47;;;;;;;15.17;64.24;98958.00;4316024;33;34752;-96
2021/04/30 02:33:52;;;;;;;5.32;3.62;;;;;;;15.24;63.80;98954.31;4289582;33;34332;-96
2021/04/30 02:36:25;;;;;;;5.15;3.62;;;;;;;14.53;66.27;98960.47;4277363;33;33791;-85
2021/04/30 02:38:58;;;;;;;4.78;3.58;;;;;;;15.03;64.55;98963.91;4302921;33;33182;-96
2021/04/30 02:41:31;;;;;;;6.32;4.20;;;;;;;14.68;65.71;98967.41;4290003;33;34340;-96
2021/04/30 02:44:05;;;;;;;6.22;3.50;;;;;;;14.42;66.62;98964.00;4301794;33;34877;-88
2021/04/30 02:46:37;;;;;;;5.70;4.10;;;;;;;14.80;65.14;98960.09;4304491;33;33668;-96
2021/04/30 02:49:15;;;;;;;5.85;3.45;;;;;;;14.85;64.57;98965.69;4268904;33;34051;-85
2021/04/30 02:51:54;;;;;;;7.72;3.72;;;;;;;14.84;64.22;98955.84;4308236;33;34621;-96
2021/04/30 02:54:30;;;;;;;8.85;3.95;;;;;;;14.60;64.44;98952.22;4294525;33;34708;-96
2021/04/30 02:57:12;;;;;;;7.30;3.62;;;;;;;14.41;64.92;98941.41;4282115;33;33063;-85
2021/04/30 02:59:49;;;;;;;5.20;3.67;;;;;;;14.18;66.04;98947.59;4307252;33;32828;-89
2021/04/30 03:02:24;;;;;;;8.20;4.25;;;;;;;14.47;65.17;98956.78;4295346;33;32764;-85
2021/04/30 03:04:57;;;;;;;6.30;3.37;;;;;;;14.20;65.91;98958.25;4294901;33;35260;-85
2021/04/30 03:08:02;;;;;;;5.90;3.42;;;;;;;14.18;65.79;98955.75;4304742;33;35141;-93
2021/04/30 03:10:41;;;;;;;6.32;4.07;;;;;;;14.44;64.75;98959.16;4301644;33;32858;-96
2021/04/30 03:13:16;;;;;;;4.35;3.55;;;;;;;13.89;66.28;98960.94;4306191;33;36485;-96
2021/04/30 03:15:50;;;;;;;9.60;4.32;;;;;;;14.21;65.33;98968.88;4290858;33;34270;-96
2021/04/30 03:18:23;;;;;;;5.90;3.40;;;;;;;13.98;66.11;98964.16;4291747;33;32973;-96
2021/04/30 03:20:57;;;;;;;5.20;3.35;;;;;;;13.90;65.91;98965.31;4291819;33;33884;-87
2021/04/30 03:23:30;;;;;;;6.53;3.58;;;;;;;13.77;65.55;98968.19;4308218;33;33735;-96
2021/04/30 03:26:04;;;;;;;9.38;3.67;;;;;;;13.87;65.15;98971.19;4293130;33;34103;-95
2021/04/30 03:28:36;;;;;;;6.43;3.62;;;;;;;13.69;65.94;98977.47;4304380;33;33455;-86
2021/04/30 03:31:09;;;;;;;7.18;4.00;;;;;;;13.55;66.30;98982.22;4281682;33;33222;-87
2021/04/30 03:33:42;;;;;;;7.15;3.58;;;;;;;13.29;67.33;98987.87;4304386;33;33655;-87
2021/04/30 03:36:15;;;;;;;6.70;4.37;;;;;;;13.39;66.96;98986.34;4304892;33;33796;-96
2021/04/30 03:38:49;;;;;;;5.45;4.28;;;;;;;13.11;67.77;98984.06;4302055;33;34254;-87
2021/04/30 03:41:35;;;;;;;11.35;4.03;;;;;;;14.01;65.40;98981.91;4523735;31;176624;-86
2021/04/30 03:44:08;;;;;;;9.98;5.12;;;;;;;14.01;65.40;98981.91;4485154;31;33891;-96
2021/04/30 03:46:41;;;;;;;8.23;5.20;;;;;;;12.97;71.46;98987.97;4473843;31;34316;-95
2021/04/30 03:49:17;;;;;;;12.32;6.22;;;;;;;13.00;72.06;98990.22;4474223;31;34554;-85
2021/04/30 03:51:51;;;;;;;9.65;5.45;;;;;;;12.87;73.54;98997.44;4466595;32;34595;-85
2021/04/30 03:54:23;;;;;;;11.50;5.78;;;;;;;13.09;72.79;98999.75;4497970;32;33134;-96
2021/04/30 03:56:56;;;;;;;7.70;5.53;;;;;;;13.21;73.21;99003.37;4457825;32;34456;-86
2021/04/30 03:59:29;;;;;;;10.70;5.45;;;;;;;13.42;72.57;99007.59;4498027;31;33701;-96
2021/04/30 04:02:02;;;;;;;11.40;5.30;;;;;;;13.55;72.20;99009.38;4470317;32;34780;-85
2021/04/30 04:04:34;;;;;;;10.45;5.30;;;;;;;14.03;70.76;99009.69;4497250;31;33908;-85
2021/04/30 04:07:08;;;;;;;10.43;4.60;;;;;;;14.36;69.37;99017.41;4470357;32;34066;-96
2021/04/30 04:10:04;;;;;;;7.12;4.43;;;;;;;14.68;67.94;99006.31;4459513;32;34141;-92
2021/04/30 04:12:39;;;;;;;7.43;4.10;;;;;;;14.26;69.57;99014.41;4484711;32;33162;-96
2021/04/30 04:15:13;;;;;;;5.07;3.80;;;;;;;14.58;68.77;99012.28;4459691;32;33420;-96
2021/04/30 04:17:46;;;;;;;8.77;3.78;;;;;;;14.75;68.20;99009.75;4470414;32;33831;-85
2021/04/30 04:20:18;;;;;;;6.12;3.85;;;;;;;14.78;67.91;99012.00;4483044;32;34624;-93
2021/04/30 04:23:36;;;;;;;5.50;3.28;;;;;;;14.38;68.62;99017.16;4405618;32;33969;-85
2021/04/30 04:26:11;;;;;;;7.93;3.80;;;;;;;14.80;67.94;99036.25;4403685;32;33111;-94
2021/04/30 04:28:45;;;;;;;6.37;3.05;;;;;;;14.81;67.88;99033.31;4378746;32;34183;-95
2021/04/30 04:31:18;;;;;;;7.32;3.70;;;;;;;15.16;66.74;99032.56;4402552;32;35133;-96
2021/04/30 04:33:58;;;;;;;8.88;4.00;;;;;;;15.41;66.14;99047.84;4379976;32;34046;-93
2021/04/30 04:36:58;;;;;;;9.77;4.55;;;;;;;15.16;67.09;99045.31;4391366;32;34104;-85
2021/04/30 04:39:37;;;;;;;5.62;3.30;;;;;;;15.70;64.39;99045.22;4410895;26;33686;-96
2021/04/30 04:42:28;;;;;;;5.65;3.40;;;;;;;15.77;64.67;99054.13;4366673;32;35534;-85
2021/04/30 04:45:03;;;;;;;9.18;3.42;;;;;;;15.99;63.56;99059.81;4380931;32;35440;-96
2021/04/30 04:47:38;;;;;;;5.47;3.15;;;;;;;15.80;64.00;99055.56;4376267;32;34091;-85
2021/04/30 04:50:12;;;;;;;7.68;3.47;;;;;;;15.65;64.53;99053.31;4406368;26;35376;-85
2021/04/30 04:52:45;;;;;;;7.78;3.30;;;;;;;15.66;64.78;99061.22;4396910;32;34566;-96
2021/04/30 04:55:17;;;;;;;3.92;2.90;;;;;;;15.70;64.67;99054.25;4386601;32;34573;-86
2021/04/30 04:57:57;;;;;;;5.75;3.37;;;;;;;15.58;65.63;99058.84;4407160;32;32467;-91
2021/04/30 05:00:40;;;;;;;6.90;3.55;;;;;;;15.46;66.01;99055.31;4396429;32;35081;-85
2021/04/30 05:03:13;;;;;;;5.25;3.80;;;;;;;15.60;65.58;99051.28;4407831;32;33928;-87
2021/04/30 05:05:45;;;;;;;6.28;3.78;;;;;;;15.74;65.59;99067.41;4384205;32;34397;-96
2021/04/30 05:08:19;;;;;;;7.65;3.95;;;;;;;15.62;66.81;99060.03;4368836;32;33864;-86
2021/04/30 05:10:51;;;;;;;7.40;3.40;;;;;;;16.08;65.73;99075.78;4393758;32;33742;-95
2021/04/30 05:13:25;;;;;;;7.18;3.85;;;;;;;15.80;66.16;99078.19;4368036;32;35118;-85
2021/04/30 05:15:57;;;;;;;6.72;3.97;;;;;;;15.73;66.25;99073.91;4380271;32;34381;-95
2021/04/30 05:18:31;;;;;;;5.68;3.78;;;;;;;15.99;66.19;99080.78;4367300;32;33768;-95
2021/04/30 05:21:04;;;;;;;4.57;3.67;;;;;;;16.34;64.50;99077.16;4369220;32;35251;-85
2021/04/30 05:23:37;;;;;;;10.70;4.05;;;;;;;16.50;64.76;99078.31;4368662;32;34779;-96
2021/04/30 05:26:10;;;;;;;13.95;4.30;;;;;;;16.79;64.08;99089.22;4368112;32;35000;-95
2021/04/30 05:28:43;;;;;;;7.37;4.87;;;;;;;16.81;64.44;99084.34;4363575;32;34630;-95
2021/04/30 05:31:15;;;;;;;7.47;4.40;;;;;;;16.95;64.37;99083.00;4379805;32;33521;-85
2021/04/30 05:33:48;;;;;;;7.20;4.03;;;;;;;16.98;65.18;99084.41;4379372;32;34473;-92
2021/04/30 05:36:21;;;;;;;5.62;3.92;;;;;;;16.95;64.75;99077.53;4356628;32;34906;-85
2021/04/30 05:38:53;;;;;;;5.57;4.18;;;;;;;17.32;64.00;99081.72;4380220;32;32883;-85
2021/04/30 05:41:25;;;;;;;5.53;4.03;;;;;;;17.56;63.36;99076.91;4382676;32;33702;-85
2021/04/30 05:43:57;;;;;;;8.05;4.55;;;;;;;17.83;62.80;99075.12;4393805;32;34629;-85
2021/04/30 05:46:29;;;;;;;5.97;4.00;;;;;;;18.02;61.27;99080.34;4380246;32;33750;-96
2021/04/30 05:49:02;;;;;;;5.62;4.80;;;;;;;17.98;61.48;99079.22;4391773;32;32907;-85
2021/04/30 05:51:35;;;;;;;6.53;4.62;;;;;;;18.14;60.59;99089.28;4380781;32;34661;-96
2021/04/30 05:54:09;;;;;;;7.35;5.10;;;;;;;17.97;60.92;99091.22;4381194;32;34818;-85
2021/04/30 05:56:41;;;;;;;7.47;4.97;;;;;;;17.87;60.03;99096.50;4393474;32;34381;-86
2021/04/30 05:59:14;;;;;;;7.15;5.00;;;;;;;17.98;60.60;99098.34;4408153;32;33190;-85
2021/04/30 06:01:46;;;;;;;10.13;5.97;;;;;;;18.49;59.84;99100.94;4408216;32;33368;-95
2021/04/30 06:04:21;;;;;;;9.75;6.47;;;;;;;18.45;59.08;99107.97;4369010;32;34331;-94
2021/04/30 06:06:57;;;;;;;8.65;5.57;;;;;;;18.46;59.74;99102.25;4379898;32;34836;-96
2021/04/30 06:09:31;;;;;;;11.45;6.00;;;;;;;18.49;58.72;99107.22;4367926;32;34168;-96
2021/04/30 06:12:04;;;;;;;8.65;6.78;;;;;;;18.24;59.59;99115.09;4368149;32;34604;-96
2021/04/30 06:14:38;;;;;;;10.85;7.05;;;;;;;18.00;59.87;99121.59;4380401;32;34467;-85
2021/04/30 06:17:10;;;;;;;11.02;7.03;;;;;;;18.30;58.79;99125.84;4389122;32;34455;-85
2021/04/30 06:19:43;;;;;;;10.65;7.53;;;;;;;18.51;58.96;99132.41;4386769;32;33120;-94
2021/04/30 06:22:16;;;;;;;14.70;8.75;;;;;;;18.40;59.71;99127.91;4363712;32;33753;-95
2021/04/30 06:24:49;;;;;;;15.65;9.30;;;;;;;18.83;58.67;99139.06;4358866;32;34961;-85
2021/04/30 06:27:23;;;;;;;15.05;10.18;;;;;;;18.17;60.15;99126.22;4373581;32;34175;-96
2021/04/30 06:30:01;;;;;;;17.05;11.05;;;;;;;18.03;60.16;99130.41;4377916;32;34830;-96
2021/04/30 06:32:38;;;;;;;15.98;11.10;;;;;;;18.27;60.52;99128.25;4376300;32;34323;-95
2021/04/30 06:35:23;;;;;;;23.40;13.43;;;;;;;18.09;60.63;99143.88;4374165;32;37267;-90
2021/04/30 06:37:55;;;;;;;19.35;11.68;;;;;;;17.98;61.57;99139.34;4377272;32;34866;-84
2021/04/30 06:40:28;;;;;;;19.30;13.90;;;;;;;18.38;60.44;99140.97;4378221;32;33250;-96
2021/04/30 06:43:22;;;;;;;23.55;14.35;;;;;;;18.27;61.21;99147.41;4379627;32;32651;-94
2021/04/30 06:46:00;;;;;;;28.12;17.15;;;;;;;18.13;61.37;99142.31;4398009;32;36187;-92
2021/04/30 06:48:33;;;;;;;25.90;16.10;;;;;;;18.37;60.58;99141.22;4386934;32;33573;-95
2021/04/30 06:51:18;;;;;;;27.33;17.02;;;;;;;18.87;60.25;99142.97;4377808;32;33624;-96
2021/04/30 06:53:53;;;;;;;22.17;15.90;;;;;;;18.45;60.04;99144.38;4377008;32;34216;-96
2021/04/30 06:56:28;;;;;;;25.42;15.95;;;;;;;18.25;60.76;99152.28;4385480;32;33086;-95
2021/04/30 06:59:03;;;;;;;25.20;15.55;;;;;;;18.44;61.09;99150.94;4376063;32;35704;-93
2021/04/30 07:01:41;;;;;;;20.92;15.45;;;;;;;18.55;59.95;99146.41;4375217;32;38229;-87
2021/04/30 07:04:13;;;;;;;24.27;15.57;;;;;;;18.56;60.12;99153.53;4387277;32;33500;-88
2021/04/30 07:06:46;;;;;;;23.62;16.17;;;;;;;18.62;60.86;99160.75;4387512;32;33709;-96
2021/04/30 07:09:29;;;;;;;23.23;15.70;;;;;;;18.63;60.72;99167.84;4376635;32;35144;-94
2021/04/30 07:12:18;;;;;;;23.12;16.00;;;;;;;18.55;59.81;99153.78;4323678;32;33211;-94
2021/04/30 07:15:08;;;;;;;21.65;15.55;;;;;;;18.45;60.69;99160.78;4351892;32;36011;-96
2021/04/30 07:17:44;;;;;;;27.95;17.33;;;;;;;18.40;60.17;99173.56;4361231;32;33936;-95
2021/04/30 07:20:17;;;;;;;23.48;16.80;;;;;;;18.22;61.35;99163.72;4346931;32;33165;-87
2021/04/30 07:22:50;;;;;;;27.55;17.50;;;;;;;18.42;60.68;99172.22;4347149;32;32411;-89
2021/04/30 07:25:23;;;;;;;24.55;16.75;;;;;;;18.99;61.15;99172.97;4358386;32;33329;-86
2021/04/30 07:27:56;;;;;;;27.33;17.30;;;;;;;19.38;58.66;99181.03;4359921;32;34397;-87
2021/04/30 07:30:32;;;;;;;26.62;17.12;;;;;;;19.53;60.04;99183.91;4373149;32;34147;-94
2021/04/30 07:33:30;;;;;;;25.70;16.83;;;;;;;20.05;56.50;99176.16;4383619;32;31886;-96
2021/04/30 07:36:14;;;;;;;25.00;16.90;;;;;;;19.81;55.70;99184.75;4360585;32;34641;-85
2021/04/30 07:38:47;;;;;;;28.98;18.40;;;;;;;19.10;58.38;99191.19;4336747;32;33187;-88
2021/04/30 07:41:21;;;;;;;23.17;16.33;;;;;;;19.48;57.31;99197.59;4359195;32;34243;-84
2021/04/30 07:43:54;;;;;;;30.70;17.33;;;;;;;19.30;58.36;99208.91;4346197;32;33265;-86
2021/04/30 07:46:29;;;;;;;24.87;17.00;;;;;;;19.39;59.30;99212.84;4333621;32;34950;-89
2021/04/30 07:49:03;;;;;;;26.40;18.50;;;;;;;19.29;58.09;99219.03;4346311;32;34257;-95
2021/04/30 07:51:54;;;;;;;28.30;17.27;;;;;;;19.40;56.59;99226.28;4354618;32;33745;-85
2021/04/30 07:54:27;;;;;;;22.85;16.50;;;;;;;19.17;58.28;99227.38;4360599;32;33118;-96
2021/04/30 07:57:02;;;;;;;29.92;16.90;;;;;;;19.09;58.52;99219.62;4328740;32;32830;-96
2021/04/30 07:59:54;;;;;;;25.33;16.85;;;;;;;18.90;58.97;99227.34;4335478;33;34775;-90
2021/04/30 08:02:27;;;;;;;23.48;17.73;;;;;;;18.41;60.29;99230.75;4338878;33;33281;-86
2021/04/30 08:05:08;;;;;;;32.28;17.20;;;;;;;18.85;59.80;99230.84;4343068;33;33155;-96
2021/04/30 08:07:57;;;;;;;24.23;15.82;;;;;;;19.26;60.12;99241.44;4344499;32;35091;-96
2021/04/30 08:11:03;;;;;;;22.13;15.55;;;;;;;20.32;57.60;99236.41;4353420;32;34408;-87
2021/04/30 08:13:38;;;;;;;25.15;17.77;;;;;;;20.94;54.77;99234.88;4366204;32;34143;-89
2021/04/30 08:16:11;;;;;;;25.00;15.88;;;;;;;21.33;53.73;99228.94;4347434;32;36204;-96
2021/04/30 08:18:48;;;;;;;24.95;16.95;;;;;;;21.37;52.38;99229.22;4349104;32;34877;-86
2021/04/30 08:21:23;;;;;;;27.35;18.23;;;;;;;21.42;51.93;99243.00;4374519;32;34442;-96
2021/04/30 08:24:03;;;;;;;28.90;17.58;;;;;;;21.16;52.52;99239.34;4343395;32;34426;-96
2021/04/30 08:26:43;;;;;;;26.30;16.80;;;;;;;20.88;53.16;99243.34;4341443;32;33980;-96
2021/04/30 08:29:30;;;;;;;27.00;16.15;;;;;;;20.87;53.70;99241.69;4363291;32;32979;-96
2021/04/30 08:32:25;;;;;;;24.10;17.33;;;;;;;20.91;53.89;99249.13;4357254;32;34488;-96
2021/04/30 08:35:04;;;;;;;25.02;16.70;;;;;;;20.73;53.46;99255.06;4370957;32;35118;-96
2021/04/30 08:37:59;;;;;;;22.05;15.48;;;;;;;20.67;55.14;99261.63;4368102;32;33585;-95
2021/04/30 08:40:38;;;;;;;25.00;15.32;;;;;;;20.77;53.32;99264.44;4363765;32;34663;-92
2021/04/30 08:43:12;;;;;;;20.70;14.15;;;;;;;20.38;54.81;99265.53;4373295;32;33205;-96
2021/04/30 08:45:45;;;;;;;20.60;14.18;;;;;;;20.10;56.21;99262.06;4368867;32;35347;-88
2021/04/30 08:48:20;;;;;;;26.30;15.88;;;;;;;20.20;56.17;99265.97;4367195;32;33280;-86
2021/04/30 08:50:55;;;;;;;24.35;17.70;;;;;;;20.41;54.86;99262.25;4381008;32;33688;-89
2021/04/30 08:53:29;;;;;;;27.08;18.17;;;;;;;20.52;56.47;99267.81;4365686;32;34833;-89
2021/04/30 08:56:05;;;;;;;27.10;16.90;;;;;;;20.61;54.63;99267.06;4380570;32;34302;-89
2021/04/30 08:58:38;;;;;;;23.73;17.08;;;;;;;20.52;55.17;99262.34;4380456;32;33183;-96
2021/04/30 09:01:12;;;;;;;24.85;16.05;;;;;;;20.15;56.39;99265.91;4373347;32;34222;-88
2021/04/30 09:03:52;;;;;;;25.35;17.00;;;;;;;20.44;55.49;99261.72;4379375;32;33825;-96
2021/04/30 09:06:52;;;;;;;24.80;15.73;;;;;;;20.42;54.63;99263.09;4366820;32;32620;-96
2021/04/30 09:09:59;;;;;;;22.48;12.80;;;;;;;20.76;55.09;99260.03;4364700;32;34026;-95
2021/04/30 09:12:34;;;;;;;18.63;11.17;;;;;;;21.03;50.98;99261.81;4364110;32;34923;-96
2021/04/30 09:15:22;;;;;;;13.13;8.13;;;;;;;21.46;50.11;99265.25;4367965;32;33700;-87
2021/04/30 09:17:59;;;;;;;13.05;8.80;;;;;;;21.08;45.71;99270.09;4366832;32;31786;-96
2021/04/30 09:20:38;;;;;;;12.57;8.13;;;;;;;20.62;46.01;99262.41;4368784;32;33250;-86
2021/04/30 09:23:30;;;;;;;8.75;6.03;;;;;;;20.63;46.63;99255.81;4374923;32;33543;-85
2021/04/30 09:26:22;;;;;;;10.73;6.80;;;;;;;20.92;43.92;99241.72;4377986;32;36585;-87
2021/04/30 09:29:10;;;;;;;10.90;6.93;;;;;;;20.85;43.71;99238.37;4375929;32;33656;-89
2021/04/30 09:31:52;;;;;;;10.77;5.53;;;;;;;20.81;46.30;99238.09;4379738;32;33151;-91
2021/04/30 09:34:40;;;;;;;;;;;;;;;;;;;;;
2021/04/30 09:37:16;;;;;;;;;;;;;;;21.45;42.28;99241.59;4386069;32;33483;-90
2021/04/30 09:40:06;;;;;;;8.27;5.10;;;;;;;21.71;44.72;99238.94;4378236;32;32787;-96
2021/04/30 09:42:53;;;;;;;7.50;5.40;;;;;;;22.04;40.89;99245.84;4378682;32;33125;-85
2021/04/30 09:45:35;;;;;;;6.62;4.62;;;;;;;22.36;40.17;99245.56;4385369;32;34384;-96
2021/04/30 09:48:31;;;;;;;15.27;5.78;;;;;;;22.61;42.32;99243.88;4385736;32;33610;-96
2021/04/30 09:51:06;;;;;;;9.70;6.22;;;;;;;22.55;38.57;99239.47;4368412;32;33631;-89
2021/04/30 09:53:41;;;;;;;10.25;6.10;;;;;;;22.45;42.88;99250.50;4377805;32;33682;-96
2021/04/30 09:56:38;;;;;;;9.77;5.55;;;;;;;23.07;39.40;99243.72;4359261;32;32657;-96
2021/04/30 09:59:53;;;;;;;12.18;5.00;;;;;;;23.04;39.07;99243.44;4357286;32;34889;-89
2021/04/30 10:02:28;;;;;;;11.15;6.62;;;;;;;23.15;36.81;99255.28;4369566;32;33681;-85
2021/04/30 10:05:13;;;;;;;12.85;6.82;;;;;;;21.97;39.92;99257.09;4376903;32;33887;-91
2021/04/30 10:07:46;;;;;;;11.93;7.45;;;;;;;22.13;41.43;99251.63;4361485;32;33718;-95
2021/04/30 10:10:39;;;;;;;11.77;7.78;;;;;;;22.51;40.40;99258.47;4368572;32;36133;-96
2021/04/30 10:13:19;;;;;;;8.95;6.40;;;;;;;22.77;39.78;99257.59;4367228;32;34799;-96
2021/04/30 10:16:04;;;;;;;9.63;5.55;;;;;;;23.45;40.55;99257.06;4352496;32;33983;-91
2021/04/30 10:18:40;;;;;;;6.18;4.90;;;;;;;23.79;38.49;99259.88;4359882;32;34511;-96
2021/04/30 10:21:25;;;;;;;11.75;5.55;;;;;;;23.34;38.17;99263.72;4379587;32;33715;-96
2021/04/30 10:24:16;;;;;;;7.05;4.10;;;;;;;23.55;39.40;99247.91;4354267;32;34358;-96
2021/04/30 10:27:51;;;;;;;6.75;4.43;;;;;;;24.20;38.16;99242.19;4342759;32;20159;-96
2021/04/30 10:31:32;;;;;;;6.60;4.72;;;;;;;24.99;36.08;99246.66;4352400;32;34248;-94
2021/04/30 10:34:16;;;;;;;6.20;4.20;;;;;;;25.55;35.47;99231.25;4341239;32;33553;-96
2021/04/30 10:36:55;;;;;;;8.15;4.62;;;;;;;25.12;33.99;99240.41;4336308;33;34118;-94
2021/04/30 10:39:40;;;;;;;8.20;4.50;;;;;;;24.88;35.62;99245.09;4365278;32;32075;-96
2021/04/30 10:42:46;;;;;;;5.57;4.23;;;;;;;25.16;34.61;99241.44;4297017;33;32202;-91
2021/04/30 10:45:21;;;;;;;8.13;4.10;;;;;;;25.32;34.62;99253.16;4318952;33;33785;-96
2021/04/30 10:48:10;;;;;;;8.23;4.68;;;;;;;25.70;34.69;99253.19;4310235;33;32634;-95
2021/04/30 10:50:51;;;;;;;7.20;5.20;;;;;;;25.30;34.06;99258.16;4322697;33;31744;-94
2021/04/30 10:53:57;;;;;;;7.37;4.20;;;;;;;25.70;33.58;99260.63;4312259;33;32708;-95
2021/04/30 10:57:07;;;;;;;7.12;3.78;;;;;;;26.34;32.39;99251.88;4427456;27;33916;-89
2021/04/30 10:59:39;;;;;;;8.90;4.07;;;;;;;26.74;32.08;99260.59;4636446;27;33402;-90
2021/04/30 11:02:43;;;;;;;10.07;4.95;;;;;;;27.00;30.56;99263.69;4860376;27;33772;31
2021/04/30 11:09:10;;;;;;;7.03;4.28;;;;;;;27.34;31.83;99262.44;4506224;27;33361;-89
2021/04/30 11:12:31;;;;;;;5.57;4.07;;;;;;;27.48;30.30;99254.09;3680668;27;33195;-95
2021/04/30 11:15:10;;;;;;;7.40;3.53;;;;;;;27.76;30.66;99256.81;4358745;32;34341;-96
2021/04/30 11:18:07;;;;;;;4.25;3.30;;;;;;;27.37;32.55;99255.47;4361509;32;36325;-92
2021/04/30 11:21:07;;;;;;;;;;;;;;;27.45;30.67;99246.41;4360674;27;34399;-95
2021/04/30 11:24:33;;;;;;;4.32;3.92;;;;;;;27.43;30.75;99252.25;4323063;33;34280;-96
2021/04/30 11:27:33;;;;;;;4.78;3.00;;;;;;;27.43;29.76;99259.78;4395989;27;32864;-96
2021/04/30 11:31:02;;;;;;;3.33;2.85;;;;;;;26.37;31.63;99262.34;4323136;33;20166;-95
2021/04/30 11:34:16;;;;;;;4.90;3.28;;;;;;;25.99;31.76;99263.28;4315072;33;34979;-91
2021/04/30 11:36:57;;;;;;;5.15;2.72;;;;;;;26.33;30.95;99262.13;4315822;33;34355;-87
2021/04/30 11:39:35;;;;;;;4.05;2.12;;;;;;;26.30;31.03;99273.00;4328411;33;32916;-90
2021/04/30 11:42:14;;;;;;;2.90;1.98;;;;;;;25.85;33.33;99267.88;4306132;33;34355;-96
2021/04/30 11:44:53;;;;;;;3.80;2.37;;;;;;;27.09;30.54;99267.38;4320092;33;33703;-87
2021/04/30 11:47:52;;;;;;;3.83;2.00;;;;;;;27.72;29.25;99272.44;4328249;33;33501;-93
2021/04/30 11:50:36;;;;;;;2.83;2.00;;;;;;;27.43;29.33;99270.88;4316503;33;33830;-96
2021/04/30 11:53:56;;;;;;;4.04;2.56;;;;;;;27.69;28.28;99268.31;4297565;27;32664;-96
2021/04/30 11:57:03;;;;;;;2.50;2.10;;;;;;;26.76;29.06;99267.47;4543688;27;20111;-92
2021/04/30 12:00:17;;;;;;;;;;;;;;;26.10;30.92;99263.91;4470653;27;33062;31
2021/04/30 12:03:11;;;;;;;4.93;2.42;;;;;;;26.12;30.29;99261.66;4317226;27;32370;-94
2021/04/30 12:06:18;;;;;;;3.35;2.08;;;;;;;27.07;30.64;99257.72;4361773;27;32873;-89
2021/04/30 12:12:29;;;;;;;3.17;2.33;;;;;;;28.03;27.59;99250.34;4601750;27;32810;-96
2021/04/30 12:20:05;;;;;;;3.42;2.45;;;;;;;27.15;29.58;99237.59;4327233;28;32776;-93
2021/04/30 12:23:15;;;;;;;4.32;2.67;;;;;;;28.20;29.32;99227.41;4280748;33;35053;-95
2021/04/30 12:25:56;;;;;;;4.07;2.55;;;;;;;29.34;27.59;99222.31;4298029;28;33154;-95
2021/04/30 12:29:05;;;;;;;4.45;2.40;;;;;;;29.58;28.65;99219.91;4259802;33;33457;-90
2021/04/30 12:32:06;;;;;;;5.85;2.37;;;;;;;29.96;27.25;99212.84;4285875;27;34038;-91
2021/04/30 12:35:02;;;;;;;3.87;2.35;;;;;;;30.24;29.26;99209.66;4283888;33;33402;-96
2021/04/30 12:38:12;;;;;;;3.30;2.03;;;;;;;30.86;25.49;99216.69;4152452;33;34676;-96
2021/04/30 12:40:49;;;;;;;6.55;2.60;;;;;;;30.87;26.03;99206.34;4304229;33;35287;-96
2021/04/30 12:43:48;;;;;;;12.15;2.85;;;;;;;30.20;24.52;99212.31;4328237;27;34534;-96
2021/04/30 12:46:29;;;;;;;;;;;;;;;28.28;27.44;99206.38;4272184;33;35703;-95
2021/04/30 12:50:07;;;;;;;2.95;2.60;;;;;;;27.80;28.97;99202.28;4260977;33;32632;-93
2021/04/30 12:53:09;;;;;;;5.80;2.20;;;;;;;28.95;27.50;99197.00;4536647;27;34579;-92
2021/04/30 13:21:04;;;;;;;2.95;2.08;;;;;;;27.54;27.17;99177.91;1041891;28;32972;-92
2021/04/30 13:54:16;;;;;;;4.32;1.30;;;;;;;30.94;22.92;99148.06;1179300;28;20361;-93
2021/04/30 13:57:56;;;;;;;2.37;1.30;;;;;;;32.25;20.95;99137.72;1116455;28;20372;-92
2021/04/30 14:12:10;;;;;;;2.58;1.30;;;;;;;34.03;19.42;99140.78;4604402;28;20103;-96
2021/04/30 14:15:35;;;;;;;2.85;1.30;;;;;;;34.25;17.77;99149.72;2517988;28;20427;-95
2021/04/30 14:18:56;;;;;;;3.08;1.77;;;;;;;33.13;19.17;99148.53;4164021;34;31061;-96